Time;durP1;ratioP1;P1;durP2;ratioP2;P2;SDS_P1;SDS_P2;PMS_P1;PMS_P2;Temp;Humidity;BMP_temperature;BMP_pressure;BME280_temperature;BME280_humidity;BME280_pressure;Samples;Min_cycle;Max_cycle;Signal;HPM_P1;HPM_P2
2022/08/03 00:00:54;;;;;;;8.85;7.95;;;;;;;20.63;62.28;99670.56;4908381;29;20063;-61
2022/08/03 00:03:20;;;;;;;13.40;8.95;;;;;;;20.64;61.77;99674.91;4908264;29;20317;-61
2022/08/03 00:05:46;;;;;;;11.80;9.02;;;;;;;20.56;62.10;99674.53;4908109;29;20024;-61
2022/08/03 00:08:12;;;;;;;11.15;8.52;;;;;;;20.62;61.86;99668.88;4906973;29;20051;-61
2022/08/03 00:10:37;;;;;;;13.02;9.40;;;;;;;20.64;61.91;99674.91;4908061;29;20028;-61
2022/08/03 00:13:03;;;;;;;15.65;9.23;;;;;;;20.51;62.44;99677.47;4908073;29;20034;-61
2022/08/03 00:15:29;;;;;;;13.00;8.90;;;;;;;20.60;62.34;99678.66;4903651;29;20112;-61
2022/08/03 00:17:54;;;;;;;13.60;8.55;;;;;;;20.69;61.89;99678.09;4889082;29;20210;-61
2022/08/03 00:20:21;;;;;;;12.68;8.98;;;;;;;20.61;62.40;99675.09;4907832;29;20080;-60
2022/08/03 00:22:46;;;;;;;12.15;9.35;;;;;;;20.55;62.80;99673.69;4907873;29;20044;-60
2022/08/03 00:25:12;;;;;;;12.75;9.63;;;;;;;20.63;62.17;99681.09;4907777;29;20262;-60
2022/08/03 00:27:37;;;;;;;14.35;9.63;;;;;;;20.61;61.97;99680.34;4907653;29;20036;-60
2022/08/03 00:30:04;;;;;;;12.98;9.80;;;;;;;20.51;62.50;99670.41;4907793;29;20325;-61
2022/08/03 00:32:29;;;;;;;13.90;8.95;;;;;;;20.57;62.48;99684.13;4907894;29;20037;-60
2022/08/03 00:34:55;;;;;;;13.07;8.73;;;;;;;20.62;62.12;99674.13;4907519;29;20329;-60
2022/08/03 00:37:21;;;;;;;10.55;8.70;;;;;;;20.68;61.71;99674.63;4907697;29;20032;-61
2022/08/03 00:39:46;;;;;;;11.77;8.70;;;;;;;20.72;62.76;99677.88;4907409;29;20345;-60
2022/08/03 00:42:12;;;;;;;8.98;7.90;;;;;;;20.68;62.56;99673.78;4896257;29;20039;-61
2022/08/03 00:44:40;;;;;;;10.30;8.65;;;;;;;20.63;62.44;99665.31;4912390;29;20036;-61
2022/08/03 00:47:06;;;;;;;11.02;8.77;;;;;;;20.59;62.17;99672.53;4913958;29;20052;-61
2022/08/03 00:49:32;;;;;;;12.60;8.75;;;;;;;20.59;62.54;99671.69;4914937;29;20064;-61
2022/08/03 00:51:59;;;;;;;12.60;8.25;;;;;;;20.64;62.70;99669.63;4932110;29;20033;-61
2022/08/03 00:54:25;;;;;;;10.10;7.93;;;;;;;20.63;63.05;99662.66;4914707;29;20069;-61
2022/08/03 00:56:51;;;;;;;10.98;8.25;;;;;;;20.61;63.44;99673.28;4915033;29;20036;-60
2022/08/03 00:59:17;;;;;;;10.63;8.60;;;;;;;20.58;63.32;99667.38;4915462;29;20030;-60
2022/08/03 01:01:43;;;;;;;10.73;7.53;;;;;;;20.57;64.05;99668.34;4911700;29;20042;-61
2022/08/03 01:04:08;;;;;;;10.75;8.38;;;;;;;20.54;63.75;99669.38;4918182;29;20392;-61
2022/08/03 01:06:49;;;;;;;9.00;7.85;;;;;;;20.24;64.73;99637.94;4913610;29;20147;-61
2022/08/03 01:09:37;;;;;;;13.43;8.82;;;;;;;20.41;64.76;99669.28;4913618;29;20035;-61
2022/08/03 01:12:09;;;;;;;12.32;8.80;;;;;;;20.37;64.88;99666.97;4912657;29;20233;-61
2022/08/03 01:14:43;;;;;;;11.27;9.60;;;;;;;20.00;64.79;99613.06;4912691;29;20055;-61
2022/08/03 01:17:35;;;;;;;12.30;8.85;;;;;;;20.03;65.13;99616.47;4910414;29;20024;-61
2022/08/03 01:20:04;;;;;;;13.68;9.40;;;;;;;20.32;64.64;99670.72;4905650;29;20055;-61
2022/08/03 01:23:03;;;;;;;14.40;8.57;;;;;;;20.30;65.16;99666.50;4907218;29;20025;-61
2022/08/03 01:25:58;;;;;;;11.43;8.65;;;;;;;20.24;65.92;99672.13;4907393;29;20044;-61
2022/08/03 01:28:58;;;;;;;10.68;8.95;;;;;;;20.23;65.76;99675.69;4907535;29;20044;-61
2022/08/03 01:31:34;;;;;;;9.25;8.20;;;;;;;20.01;65.78;99634.97;4911271;29;20088;-61
2022/08/03 01:34:05;;;;;;;11.70;8.40;;;;;;;20.21;65.36;99675.78;4910083;29;20182;-60
2022/08/03 01:36:42;;;;;;;11.77;9.13;;;;;;;20.18;65.21;99682.09;4911092;29;20069;-63
2022/08/03 01:39:08;;;;;;;12.65;8.65;;;;;;;20.17;65.35;99677.75;4911071;29;20317;-61
2022/08/03 01:41:46;;;;;;;14.82;9.65;;;;;;;20.14;65.37;99667.44;4910363;29;20359;-61
2022/08/03 01:44:13;;;;;;;14.98;9.00;;;;;;;20.13;65.38;99676.25;4910750;29;20246;-61
2022/08/03 01:46:40;;;;;;;10.07;8.68;;;;;;;20.08;66.32;99680.97;4910855;29;20024;-61
2022/08/03 01:49:09;;;;;;;10.32;9.02;;;;;;;20.06;66.63;99693.34;4909712;29;20056;-61
2022/08/03 01:51:40;;;;;;;10.18;8.98;;;;;;;20.04;66.46;99679.47;4910992;29;20044;-60
2022/08/03 01:54:08;;;;;;;11.90;9.20;;;;;;;20.03;67.07;99680.38;4910491;29;20032;-61
2022/08/03 01:56:36;;;;;;;12.25;8.60;;;;;;;20.01;66.84;99682.28;4910661;29;20045;-61
2022/08/03 01:59:03;;;;;;;11.57;8.82;;;;;;;19.95;66.99;99680.00;4910785;29;20029;-61
2022/08/03 02:01:30;;;;;;;16.70;9.00;;;;;;;19.97;67.12;99681.59;4910586;29;20039;-61
2022/08/03 02:03:58;;;;;;;10.30;8.38;;;;;;;19.97;66.90;99696.53;4910616;29;20041;-61
2022/08/03 02:06:25;;;;;;;12.95;8.95;;;;;;;19.90;67.53;99682.91;4910570;29;20121;-61
2022/08/03 02:08:52;;;;;;;15.50;8.55;;;;;;;19.96;67.30;99686.97;4910502;29;20032;-61
2022/08/03 02:11:18;;;;;;;9.18;8.27;;;;;;;19.92;67.52;99678.41;4910536;29;20217;-61
2022/08/03 02:13:46;;;;;;;15.25;8.77;;;;;;;19.92;67.28;99677.56;4910434;29;20037;-61
2022/08/03 02:16:13;;;;;;;9.90;8.90;;;;;;;19.86;67.63;99667.44;4900269;29;20324;-61
2022/08/03 02:18:41;;;;;;;12.77;9.25;;;;;;;19.93;68.24;99684.53;4896246;29;20055;-61
2022/08/03 02:21:09;;;;;;;13.20;10.10;;;;;;;19.65;67.68;99641.47;4910194;29;20024;-61
2022/08/03 02:23:36;;;;;;;10.45;9.38;;;;;;;19.95;68.11;99691.38;4910473;29;20056;-61
2022/08/03 02:26:05;;;;;;;10.38;9.18;;;;;;;19.94;68.52;99702.81;4910056;29;20029;-61
2022/08/03 02:28:34;;;;;;;9.80;8.63;;;;;;;19.93;67.86;99701.13;4910141;29;20071;-61
2022/08/03 02:31:04;;;;;;;14.55;9.25;;;;;;;19.71;68.04;99646.38;4909823;29;20036;-60
2022/08/03 02:33:40;;;;;;;10.60;9.00;;;;;;;19.72;68.95;99650.66;4910144;29;20038;-60
2022/08/03 02:36:07;;;;;;;10.32;8.30;;;;;;;20.01;68.66;99705.94;4909871;29;20154;-60
2022/08/03 02:38:37;;;;;;;11.98;9.60;;;;;;;19.99;68.62;99692.91;4909953;29;20152;-60
2022/08/03 02:41:07;;;;;;;13.55;10.70;;;;;;;19.80;68.55;99652.88;4908853;29;20088;-60
2022/08/03 02:43:36;;;;;;;12.15;10.15;;;;;;;20.08;68.16;99707.25;4923898;29;20288;-60
2022/08/03 02:46:04;;;;;;;14.73;9.60;;;;;;;20.10;68.62;99694.03;4908149;29;20048;-60
2022/08/03 02:48:33;;;;;;;12.50;9.30;;;;;;;20.08;69.16;99701.13;4909425;29;20044;-60
2022/08/03 02:51:01;;;;;;;10.25;9.07;;;;;;;20.13;68.81;99691.19;4909686;29;20115;-60
2022/08/03 02:53:28;;;;;;;11.43;9.25;;;;;;;20.19;68.76;99690.81;4909690;29;20036;-60
2022/08/03 02:55:55;;;;;;;17.08;10.68;;;;;;;20.18;68.38;99697.88;4909468;29;20376;-60
2022/08/03 02:58:22;;;;;;;15.07;10.75;;;;;;;20.23;68.36;99713.34;4909541;29;20035;-60
2022/08/03 03:00:53;;;;;;;16.15;10.10;;;;;;;19.98;68.98;99653.53;4909616;29;20384;-61
2022/08/03 03:03:21;;;;;;;17.83;10.45;;;;;;;20.32;68.56;99701.41;4909652;29;20084;-61
2022/08/03 03:05:48;;;;;;;11.27;9.65;;;;;;;20.38;68.46;99701.06;4909573;29;20104;-61
2022/08/03 03:08:16;;;;;;;11.93;10.10;;;;;;;20.43;68.35;99711.28;4909503;29;20031;-61
2022/08/03 03:10:43;;;;;;;13.40;9.05;;;;;;;20.46;68.00;99701.41;4908016;29;20020;-61
2022/08/03 03:13:09;;;;;;;10.45;9.35;;;;;;;20.51;68.08;99701.97;4909104;29;20220;-61
2022/08/03 03:15:38;;;;;;;16.45;10.18;;;;;;;20.58;67.88;99705.06;4909357;29;20440;-61
2022/08/03 03:18:05;;;;;;;10.95;9.68;;;;;;;20.63;67.53;99710.03;4909270;29;20029;-61
2022/08/03 03:20:34;;;;;;;12.02;9.93;;;;;;;20.68;66.32;99718.53;4909440;29;20257;-61
2022/08/03 03:23:01;;;;;;;11.43;10.10;;;;;;;20.46;66.50;99663.72;4909194;29;20051;-60
2022/08/03 03:25:30;;;;;;;14.93;10.60;;;;;;;20.73;65.74;99713.81;4909232;29;20032;-61
2022/08/03 03:27:57;;;;;;;12.00;9.40;;;;;;;20.88;66.32;99716.41;4909114;29;20028;-60
2022/08/03 03:30:22;;;;;;;13.00;10.77;;;;;;;20.83;65.23;99712.28;4909261;29;20230;-61
2022/08/03 03:32:49;;;;;;;10.52;9.43;;;;;;;20.99;65.69;99713.94;4908944;29;20057;-61
2022/08/03 03:35:15;;;;;;;9.77;8.77;;;;;;;21.01;66.08;99719.97;4908789;29;20029;-61
2022/08/03 03:37:41;;;;;;;11.50;8.85;;;;;;;21.08;66.03;99715.13;4909080;29;20021;-60
2022/08/03 03:40:07;;;;;;;17.27;9.40;;;;;;;21.10;66.19;99723.78;4906654;29;20044;-61
2022/08/03 03:42:33;;;;;;;13.35;9.82;;;;;;;21.16;64.97;99715.47;4908573;29;20048;-60
2022/08/03 03:45:06;;;;;;;12.63;9.32;;;;;;;21.08;64.38;99681.75;4908718;29;20044;-60
2022/08/03 03:47:33;;;;;;;10.05;9.05;;;;;;;21.23;63.96;99679.03;4907477;29;20048;-61
2022/08/03 03:50:00;;;;;;;11.38;8.98;;;;;;;21.57;64.05;99726.91;4907650;29;20036;-61
2022/08/03 03:52:26;;;;;;;13.05;9.02;;;;;;;21.59;64.70;99719.72;4908216;29;20027;-60
2022/08/03 03:54:51;;;;;;;10.95;8.30;;;;;;;21.62;64.63;99724.78;4910384;29;20024;-61
2022/08/03 03:57:17;;;;;;;9.40;8.43;;;;;;;21.60;63.78;99722.25;4908591;29;20025;-61
2022/08/03 03:59:43;;;;;;;9.57;8.13;;;;;;;21.65;63.72;99714.06;4923144;29;20025;-61
2022/08/03 04:02:10;;;;;;;10.15;8.32;;;;;;;21.71;63.73;99726.81;4908431;29;20313;-61
2022/08/03 04:13:01;;;;;;;8.40;7.60;;;;;;;22.00;62.30;99735.38;4908217;29;20071;-60
2022/08/03 04:15:28;;;;;;;10.68;7.80;;;;;;;22.01;62.63;99728.34;4905829;29;20038;-60
2022/08/03 04:17:57;;;;;;;16.20;8.23;;;;;;;21.91;62.45;99729.91;4889490;29;20025;-59
2022/08/03 04:20:26;;;;;;;10.30;7.63;;;;;;;22.01;61.80;99739.72;4906625;29;20036;-59
2022/08/03 04:22:55;;;;;;;10.45;7.30;;;;;;;21.85;61.98;99702.16;4908205;29;20084;-60
2022/08/03 04:25:25;;;;;;;8.32;7.53;;;;;;;22.19;62.04;99739.38;4908019;29;20040;-60
2022/08/03 04:27:51;;;;;;;11.48;7.60;;;;;;;22.24;62.73;99742.56;4908033;29;20063;-60
2022/08/03 04:30:18;;;;;;;11.73;7.60;;;;;;;22.21;62.25;99738.34;4907129;29;20029;-60
2022/08/03 04:32:50;;;;;;;9.43;8.48;;;;;;;22.21;62.15;99742.78;4922329;29;20089;-60
2022/08/03 04:35:17;;;;;;;9.57;7.75;;;;;;;22.14;61.49;99738.88;4907776;29;20043;-60
2022/08/03 04:37:46;;;;;;;10.77;8.15;;;;;;;22.22;61.81;99745.31;4906365;29;20061;-60
2022/08/03 04:40:18;;;;;;;10.10;7.57;;;;;;;22.23;61.69;99752.28;4907549;29;20115;-60
2022/08/03 04:42:45;;;;;;;;;;;;;;;22.30;62.18;99739.50;4908437;29;20206;-59
2022/08/03 04:45:15;;;;;;;10.98;7.40;;;;;;;22.40;61.51;99755.56;4908932;29;20196;-60
2022/08/03 04:47:41;;;;;;;13.00;8.13;;;;;;;22.33;61.49;99746.38;4888938;29;20037;-59
2022/08/03 04:50:08;;;;;;;10.95;8.20;;;;;;;22.27;61.25;99745.00;4903875;29;20091;-59
2022/08/03 04:52:34;;;;;;;14.55;8.27;;;;;;;22.40;61.80;99748.50;4907676;29;20040;-60
2022/08/03 04:55:00;;;;;;;10.85;7.55;;;;;;;22.55;61.96;99749.22;4909934;29;20274;-60
2022/08/03 04:57:25;;;;;;;17.52;8.10;;;;;;;22.58;61.75;99742.88;4907472;29;20034;-60
2022/08/03 04:59:55;;;;;;;11.68;7.97;;;;;;;22.69;61.14;99735.03;4907544;29;20564;-60
2022/08/03 05:02:22;;;;;;;9.05;7.82;;;;;;;22.78;61.02;99745.91;4907609;29;20092;-60
2022/08/03 05:04:48;;;;;;;11.35;8.20;;;;;;;22.89;60.89;99743.34;4906701;29;20058;-60
2022/08/03 05:07:16;;;;;;;15.25;7.30;;;;;;;23.18;60.20;99743.88;4907382;29;20035;-60
2022/08/03 05:09:42;;;;;;;27.45;9.05;;;;;;;23.18;61.29;99735.97;4907239;29;20336;-60
2022/08/03 05:12:09;;;;;;;10.88;7.25;;;;;;;23.54;58.90;99733.34;4906214;29;20209;-59
2022/08/03 05:14:37;;;;;;;10.45;7.38;;;;;;;23.66;58.71;99742.16;4889366;29;20064;-60
2022/08/03 05:17:04;;;;;;;12.70;8.00;;;;;;;23.96;58.48;99744.31;4902503;29;20217;-61
2022/08/03 05:19:30;;;;;;;10.32;7.72;;;;;;;23.80;58.79;99749.91;4907392;29;20031;-60
2022/08/03 05:21:55;;;;;;;11.20;7.80;;;;;;;23.91;57.81;99738.53;4907355;29;20028;-60
2022/08/03 05:24:21;;;;;;;14.65;7.85;;;;;;;24.24;58.00;99742.16;4907358;29;20024;-61
2022/08/03 05:26:46;;;;;;;9.73;7.50;;;;;;;24.68;56.42;99740.50;4907153;29;20024;-60
2022/08/03 05:29:12;;;;;;;13.32;8.15;;;;;;;24.81;55.41;99735.06;4907213;29;20225;-60
2022/08/03 05:31:37;;;;;;;11.75;7.00;;;;;;;24.60;56.65;99745.59;4907401;29;20036;-60
2022/08/03 05:34:03;;;;;;;10.88;7.38;;;;;;;24.66;56.93;99738.97;4907185;29;20039;-60
2022/08/03 05:36:29;;;;;;;9.23;6.93;;;;;;;24.52;55.97;99750.63;4907128;29;20033;-60
2022/08/03 05:38:54;;;;;;;11.95;7.47;;;;;;;24.41;55.75;99744.38;4907179;29;20044;-60
2022/08/03 05:41:20;;;;;;;8.75;6.85;;;;;;;24.40;56.05;99745.31;4906905;29;20033;-61
2022/08/03 05:43:46;;;;;;;11.90;6.43;;;;;;;24.55;56.23;99756.50;4906012;29;20047;-61
2022/08/03 05:46:12;;;;;;;8.73;5.93;;;;;;;24.95;55.49;99742.75;4908760;29;20063;-61
2022/08/03 05:48:38;;;;;;;10.68;7.10;;;;;;;24.98;55.37;99746.94;4907505;29;20060;-61
2022/08/03 05:51:06;;;;;;;8.93;6.57;;;;;;;25.03;55.79;99750.09;4906090;29;20233;-61
2022/08/03 05:53:34;;;;;;;8.48;6.20;;;;;;;25.04;55.00;99753.56;4907295;29;20051;-60
2022/08/03 05:56:00;;;;;;;7.65;5.75;;;;;;;25.07;54.80;99753.31;4906937;29;20036;-60
2022/08/03 05:58:26;;;;;;;6.78;5.85;;;;;;;24.93;54.12;99752.63;4906319;29;20037;-59
2022/08/03 06:00:51;;;;;;;10.05;6.15;;;;;;;24.99;54.28;99748.66;4906473;29;20024;-59
2022/08/03 06:03:17;;;;;;;9.43;6.40;;;;;;;25.07;54.22;99750.66;4907016;29;20032;-60
2022/08/03 06:05:43;;;;;;;10.32;5.95;;;;;;;25.11;54.69;99744.16;4907025;29;20225;-59
2022/08/03 06:08:08;;;;;;;8.63;7.05;;;;;;;25.12;55.86;99744.03;4905731;29;20024;-60
2022/08/03 06:10:34;;;;;;;8.63;5.78;;;;;;;25.09;53.47;99743.44;4906871;29;20068;-59
2022/08/03 06:12:59;;;;;;;10.18;6.20;;;;;;;25.24;54.18;99738.69;4901453;29;20033;-59
2022/08/03 06:15:25;;;;;;;9.90;6.43;;;;;;;25.40;54.31;99743.63;4890568;29;20060;-60
2022/08/03 06:17:51;;;;;;;8.93;6.57;;;;;;;25.43;54.48;99753.97;4910192;29;20025;-60
2022/08/03 06:20:18;;;;;;;12.80;6.68;;;;;;;25.09;53.03;99709.00;4924928;29;20232;-60
2022/08/03 06:22:45;;;;;;;9.65;6.07;;;;;;;25.48;53.56;99744.66;4909945;29;20060;-60
2022/08/03 06:25:11;;;;;;;6.80;5.43;;;;;;;25.53;54.58;99751.41;4924744;29;20086;-60
2022/08/03 06:27:38;;;;;;;6.40;5.60;;;;;;;25.63;53.28;99752.31;4908912;29;21983;-60
2022/08/03 06:30:09;;;;;;;8.23;5.90;;;;;;;25.67;53.29;99764.34;4909886;29;20028;-60
2022/08/03 06:32:39;;;;;;;8.13;5.83;;;;;;;25.78;53.28;99758.13;4909917;29;20032;-60
2022/08/03 06:35:06;;;;;;;7.38;5.28;;;;;;;25.78;52.11;99756.34;4909701;29;20063;-60
2022/08/03 06:37:44;;;;;;;6.95;4.88;;;;;;;25.76;51.54;99758.25;4909827;29;20258;-62
2022/08/03 06:40:18;;;;;;;7.82;4.78;;;;;;;25.59;51.42;99713.75;4909954;29;20036;-61
2022/08/03 06:42:44;;;;;;;8.18;5.72;;;;;;;25.92;51.82;99762.28;4909856;29;20309;-60
2022/08/03 06:45:10;;;;;;;8.07;4.75;;;;;;;25.96;52.09;99761.03;4910856;29;20048;-60
2022/08/03 06:47:37;;;;;;;7.28;5.07;;;;;;;26.00;50.21;99763.34;4910048;29;20322;-60
2022/08/03 06:50:06;;;;;;;5.10;4.47;;;;;;;25.87;49.00;99769.78;4909658;29;20051;-60
2022/08/03 06:52:32;;;;;;;5.63;4.50;;;;;;;25.83;48.90;99763.91;4909661;29;20035;-61
2022/08/03 06:54:57;;;;;;;8.73;4.18;;;;;;;26.01;49.43;99762.38;4912475;29;20040;-60
2022/08/03 06:57:23;;;;;;;9.35;4.60;;;;;;;26.01;49.16;99765.03;4909646;29;20035;-64
2022/08/03 06:59:49;;;;;;;6.55;4.78;;;;;;;26.18;49.67;99768.91;4909719;29;20028;-60
2022/08/03 07:02:15;;;;;;;6.32;4.30;;;;;;;26.11;48.86;99767.75;4909543;29;20213;-62
2022/08/03 07:04:41;;;;;;;5.18;4.63;;;;;;;26.21;49.97;99769.59;4909483;29;20198;-62
2022/08/03 07:07:06;;;;;;;5.70;4.57;;;;;;;26.20;49.38;99768.75;4909451;29;20130;-61
2022/08/03 07:09:32;;;;;;;7.03;4.07;;;;;;;26.24;48.13;99770.19;4909615;29;20040;-61
2022/08/03 07:11:58;;;;;;;10.13;4.43;;;;;;;26.32;48.25;99765.06;4909526;29;20024;-62
2022/08/03 07:14:23;;;;;;;12.90;5.03;;;;;;;26.50;48.71;99773.22;4893259;29;20382;-62
2022/08/03 07:16:49;;;;;;;6.65;4.38;;;;;;;26.42;47.76;99772.22;4902145;29;20040;-61
2022/08/03 07:19:15;;;;;;;6.53;4.20;;;;;;;26.54;47.45;99752.56;4909147;29;20155;-60
2022/08/03 07:21:40;;;;;;;6.78;4.57;;;;;;;26.51;46.58;99743.03;4908034;29;20047;-63
2022/08/03 07:24:06;;;;;;;5.88;4.15;;;;;;;26.76;46.75;99769.31;4908665;29;20035;-60
2022/08/03 07:26:32;;;;;;;7.45;4.10;;;;;;;26.54;45.43;99768.50;4906985;29;20025;-61
2022/08/03 07:28:59;;;;;;;9.15;4.78;;;;;;;26.82;47.39;99774.06;4909010;29;20024;-61
2022/08/03 07:31:25;;;;;;;8.48;4.20;;;;;;;26.81;46.55;99770.56;4908233;29;20052;-60
2022/08/03 07:33:51;;;;;;;5.57;4.20;;;;;;;26.71;45.99;99780.34;4909105;29;20213;-61
2022/08/03 07:36:16;;;;;;;6.43;3.70;;;;;;;26.87;45.27;99769.19;4908567;29;20024;-61
2022/08/03 07:38:42;;;;;;;7.47;3.90;;;;;;;26.81;42.21;99775.06;4908913;29;20033;-61
2022/08/03 07:41:07;;;;;;;4.63;3.55;;;;;;;26.93;41.97;99776.63;4907526;29;20040;-60
2022/08/03 07:43:33;;;;;;;7.60;3.45;;;;;;;26.97;40.06;99779.84;4907560;29;20092;-61
2022/08/03 07:45:58;;;;;;;3.50;3.20;;;;;;;27.10;40.21;99771.63;4911234;29;20036;-60
2022/08/03 07:48:24;;;;;;;4.47;3.05;;;;;;;27.19;40.38;99773.44;4908509;29;20049;-61
2022/08/03 07:50:50;;;;;;;6.55;3.20;;;;;;;27.00;38.96;99780.41;4908854;29;20025;-61
2022/08/03 07:53:16;;;;;;;4.13;3.50;;;;;;;27.08;39.95;99773.56;4908647;29;20044;-61
2022/08/03 07:55:41;;;;;;;5.38;3.75;;;;;;;27.07;40.30;99782.53;4912203;29;20205;-61
2022/08/03 07:58:11;;;;;;;6.80;3.53;;;;;;;26.95;39.78;99749.91;4908055;29;20032;-61
2022/08/03 08:00:37;;;;;;;5.68;3.20;;;;;;;27.33;39.41;99773.03;4906515;29;20024;-60
2022/08/03 08:03:04;;;;;;;3.90;3.45;;;;;;;27.34;40.49;99773.91;4907891;29;20032;-61
2022/08/03 08:05:30;;;;;;;4.00;3.60;;;;;;;27.34;39.95;99760.59;4907656;29;20028;-61
2022/08/03 08:07:56;;;;;;;4.97;3.50;;;;;;;27.49;39.89;99777.00;4907504;29;20024;-61
2022/08/03 08:10:22;;;;;;;4.60;3.55;;;;;;;27.57;40.04;99771.81;4908413;29;20063;-61
2022/08/03 08:12:48;;;;;;;4.43;3.20;;;;;;;27.58;37.73;99773.50;4905121;29;20037;-62
2022/08/03 08:15:14;;;;;;;4.82;3.20;;;;;;;27.55;38.05;99779.94;4904083;29;20028;-61
2022/08/03 08:17:47;;;;;;;6.05;3.22;;;;;;;27.79;38.55;99783.16;4907948;29;20396;-60
2022/08/03 08:20:34;;;;;;;6.00;3.92;;;;;;;27.60;37.25;99779.53;4913979;29;20437;-61
2022/08/03 08:23:02;;;;;;;3.55;3.25;;;;;;;27.53;37.59;99786.38;4915705;29;20095;-62
2022/08/03 08:25:29;;;;;;;3.72;3.42;;;;;;;27.73;37.84;99785.41;4917675;29;20316;-61
2022/08/03 08:27:55;;;;;;;4.50;3.15;;;;;;;27.88;37.92;99774.31;4916291;29;20024;-60
2022/08/03 08:30:22;;;;;;;7.50;3.85;;;;;;;27.82;37.95;99774.88;4916171;29;20337;-61
2022/08/03 08:32:49;;;;;;;4.78;3.88;;;;;;;27.64;38.01;99745.50;4916871;29;20254;-61
2022/08/03 08:35:16;;;;;;;4.47;4.03;;;;;;;28.03;38.50;99772.94;4916948;29;20547;-60
2022/08/03 08:37:42;;;;;;;5.38;3.58;;;;;;;27.90;38.33;99778.53;4917874;29;20036;-60
2022/08/03 08:40:08;;;;;;;4.28;3.47;;;;;;;28.00;38.21;99770.53;4915201;29;20306;-60
2022/08/03 08:42:37;;;;;;;5.90;3.60;;;;;;;27.99;38.97;99733.41;4915120;29;20029;-60
2022/08/03 08:45:08;;;;;;;4.93;4.32;;;;;;;27.96;38.17;99760.28;4913743;29;20329;-61
2022/08/03 08:47:36;;;;;;;4.90;4.10;;;;;;;28.14;39.04;99765.75;4909642;29;20055;-61
2022/08/03 08:50:03;;;;;;;6.68;3.88;;;;;;;28.23;38.28;99775.53;4907718;29;20332;-61
2022/08/03 08:52:29;;;;;;;7.75;4.13;;;;;;;28.24;39.00;99770.03;4907714;29;20324;-60
2022/08/03 08:55:02;;;;;;;4.72;3.80;;;;;;;28.13;38.75;99730.25;4911798;29;20035;-61
2022/08/03 08:57:36;;;;;;;4.35;3.95;;;;;;;28.39;39.27;99751.78;4906444;29;20150;-61
2022/08/03 09:00:07;;;;;;;7.53;3.90;;;;;;;28.58;39.32;99766.00;4922176;29;20036;-61
2022/08/03 09:02:33;;;;;;;;;;;;;;;28.47;38.71;99766.19;4907157;29;20096;-61
2022/08/03 09:05:00;;;;;;;5.15;4.13;;;;;;;28.44;38.17;99774.47;4906224;29;19919;-61
2022/08/03 09:07:27;;;;;;;6.90;4.88;;;;;;;28.57;38.85;99772.31;4907906;29;20213;-60
2022/08/03 09:09:53;;;;;;;5.82;4.07;;;;;;;28.64;38.36;99765.44;4907006;29;20340;-60
2022/08/03 09:12:18;;;;;;;4.18;3.78;;;;;;;28.93;38.71;99772.44;4909458;29;20063;-61
2022/08/03 09:14:44;;;;;;;6.47;4.22;;;;;;;28.57;37.96;99772.31;4915140;29;20209;-61
2022/08/03 09:17:10;;;;;;;8.35;3.55;;;;;;;28.48;37.93;99779.38;4916562;29;20036;-61
2022/08/03 09:19:36;;;;;;;4.38;3.97;;;;;;;28.58;37.75;99771.34;4916714;29;20048;-60
2022/08/03 09:22:13;;;;;;;5.32;4.18;;;;;;;27.86;38.37;99733.69;4911441;29;20067;-62
2022/08/03 09:24:57;;;;;;;4.50;4.10;;;;;;;28.30;38.67;99743.81;4896724;29;20056;-61
2022/08/03 09:27:23;;;;;;;6.65;4.30;;;;;;;28.74;38.25;99771.53;4911462;29;20344;-61
2022/08/03 09:29:51;;;;;;;7.13;3.90;;;;;;;28.58;37.40;99784.66;4910163;29;20043;-61
2022/08/03 09:32:21;;;;;;;5.78;4.13;;;;;;;28.49;38.38;99777.53;4907745;29;20249;-61
2022/08/03 09:34:48;;;;;;;5.75;3.72;;;;;;;28.71;38.96;99779.03;4911435;29;20035;-62
2022/08/03 09:37:16;;;;;;;4.65;4.25;;;;;;;28.79;38.59;99783.59;4915590;29;20032;-61
2022/08/03 09:39:44;;;;;;;8.20;4.30;;;;;;;28.62;37.36;99778.09;4914654;29;20025;-61
2022/08/03 09:42:17;;;;;;;4.97;4.18;;;;;;;28.44;38.58;99738.00;4912888;29;20409;-61
2022/08/03 09:44:45;;;;;;;5.22;4.00;;;;;;;28.73;38.02;99777.03;4909116;29;20036;-61
2022/08/03 09:47:13;;;;;;;8.73;4.25;;;;;;;28.68;38.11;99774.00;4913383;29;20127;-63
2022/08/03 09:49:43;;;;;;;7.18;3.83;;;;;;;28.75;38.81;99767.06;4916463;29;20068;-62
2022/08/03 09:52:14;;;;;;;5.10;4.20;;;;;;;28.60;38.01;99732.03;4926453;29;20036;-61
2022/08/03 09:54:41;;;;;;;5.72;4.28;;;;;;;29.08;39.23;99778.94;4929515;29;20028;-60
2022/08/03 09:57:08;;;;;;;4.97;4.25;;;;;;;29.03;38.24;99772.38;4910357;29;20037;-61
2022/08/03 09:59:34;;;;;;;6.97;4.18;;;;;;;29.15;39.32;99765.00;4910414;29;20025;-61
2022/08/03 10:02:00;;;;;;;7.85;4.20;;;;;;;29.09;38.00;99769.94;4910259;29;20040;-61
2022/08/03 10:04:26;;;;;;;4.93;4.30;;;;;;;28.98;37.73;99772.81;4910663;29;20036;-61
2022/08/03 10:07:05;;;;;;;5.35;4.22;;;;;;;28.86;37.84;99764.22;4906643;29;20594;-61
2022/08/03 10:09:31;;;;;;;4.97;4.45;;;;;;;28.86;38.54;99769.53;4909791;29;20271;-60
2022/08/03 10:12:06;;;;;;;4.45;3.85;;;;;;;28.88;38.55;99774.72;4909307;29;20123;-62
2022/08/03 10:14:32;;;;;;;5.13;4.20;;;;;;;28.91;38.80;99771.75;4906887;29;20040;-61
2022/08/03 10:16:58;;;;;;;4.40;3.95;;;;;;;28.89;38.57;99766.56;4908523;29;20067;-60
2022/08/03 10:19:24;;;;;;;8.35;4.80;;;;;;;28.77;39.64;99761.59;4910067;29;20048;-61
2022/08/03 10:21:55;;;;;;;6.13;4.22;;;;;;;28.57;40.17;99754.50;4910079;29;20108;-61
2022/08/03 10:24:27;;;;;;;6.05;4.10;;;;;;;28.45;38.71;99738.84;4910389;29;20038;-61
2022/08/03 10:27:00;;;;;;;7.95;3.85;;;;;;;28.71;39.13;99761.19;4910173;29;20100;-61
2022/08/03 10:29:28;;;;;;;6.22;3.92;;;;;;;28.77;39.35;99743.75;4918653;29;20217;-60
2022/08/03 10:31:58;;;;;;;4.97;4.00;;;;;;;29.00;40.07;99772.66;4917315;29;20317;-60
2022/08/03 10:34:27;;;;;;;8.10;4.47;;;;;;;28.95;38.90;99772.31;4917062;29;20206;-60
2022/08/03 10:36:58;;;;;;;6.10;4.55;;;;;;;28.92;39.96;99768.09;4919648;29;20073;-60
2022/08/03 10:39:28;;;;;;;5.47;4.38;;;;;;;28.84;39.57;99754.66;4918601;29;20028;-60
2022/08/03 10:41:57;;;;;;;4.32;3.92;;;;;;;29.04;38.85;99777.56;4915202;29;20036;-61
2022/08/03 10:44:25;;;;;;;4.30;3.95;;;;;;;29.17;39.79;99781.69;4909450;29;20091;-61
2022/08/03 10:46:51;;;;;;;5.95;4.43;;;;;;;29.21;39.62;99780.41;4923829;29;20403;-59
2022/08/03 10:49:18;;;;;;;8.48;4.25;;;;;;;29.38;39.37;99782.25;4909825;29;20044;-60
2022/08/03 10:51:46;;;;;;;6.47;4.22;;;;;;;29.36;38.73;99778.91;4909468;29;20087;-60
2022/08/03 10:54:36;;;;;;;5.18;4.25;;;;;;;29.47;38.73;99783.16;4912022;29;20036;-60
2022/08/03 10:59:49;;;;;;;6.57;4.05;;;;;;;29.50;38.93;99779.38;4908293;29;20036;-63
2022/08/03 11:02:15;;;;;;;6.45;3.92;;;;;;;29.54;40.03;99783.41;4907452;29;20271;-61
2022/08/03 11:04:41;;;;;;;7.22;4.35;;;;;;;29.52;39.61;99780.06;4909666;29;20029;-61
2022/08/03 11:07:22;;;;;;;6.25;3.92;;;;;;;29.60;39.74;99783.63;4908704;29;20056;-61
2022/08/03 11:09:55;;;;;;;7.33;4.00;;;;;;;29.12;37.83;99749.28;4908284;29;20032;-61
2022/08/03 11:12:25;;;;;;;8.30;3.92;;;;;;;29.18;37.01;99767.38;4909409;29;20446;-61
2022/08/03 11:14:52;;;;;;;5.18;4.32;;;;;;;28.93;36.90;99743.09;4890017;29;20333;-61
2022/08/03 11:17:18;;;;;;;5.55;4.25;;;;;;;29.15;37.71;99786.34;4903795;29;20036;-60
2022/08/03 11:19:46;;;;;;;7.10;4.22;;;;;;;28.86;37.85;99752.69;4909198;29;20299;-61
2022/08/03 11:22:12;;;;;;;7.55;4.07;;;;;;;29.20;38.06;99781.38;4909076;29;20036;-60
2022/08/03 11:24:42;;;;;;;7.07;4.90;;;;;;;29.24;37.98;99780.13;4907637;29;20355;-60
2022/08/03 11:27:17;;;;;;;8.65;4.40;;;;;;;29.20;37.47;99776.03;4907280;29;20039;-60
2022/08/03 11:29:58;;;;;;;5.75;4.15;;;;;;;29.29;37.11;99777.84;4908117;29;20032;-61
2022/08/03 11:32:43;;;;;;;4.80;3.80;;;;;;;29.36;37.26;99776.25;4908839;29;20033;-60
2022/08/03 11:35:21;;;;;;;5.50;4.05;;;;;;;29.23;36.39;99775.78;4908857;29;20021;-61
2022/08/03 11:37:53;;;;;;;5.20;3.90;;;;;;;29.39;36.86;99775.13;4908842;29;20041;-60
2022/08/03 11:40:46;;;;;;;7.20;4.05;;;;;;;29.52;37.91;99772.06;4906819;29;20048;-61
2022/08/03 11:43:20;;;;;;;6.50;4.10;;;;;;;29.55;38.16;99769.91;4907986;29;20044;-60
2022/08/03 11:46:05;;;;;;;8.85;4.65;;;;;;;29.27;38.33;99729.97;4913006;29;20312;-60